HARTSFIELD - JACKSON ATLANTA INTL

KATL (ATL)
Atlanta, Georgia
Towered

Vatsim Metar:
KATL 130952Z 33005KT 10SM SCT140 BKN180 BKN250 24/21 A3003 RMK AO2 SLP159 T02390211

No ATC Online

Traffic

Inbound:
Ident
Type
Name
ETA
Phase
DAL1585
E145/L
Erik Williams KLGA
22:04 Z
Taxiing Out
DAL2813
H/B752/L
Amine Sa DTTA
12:26 Z
Cruse

Outbound:
None

IAPs